Roebuck, South Carolina
Current Conditions -  °F | °C
As of 3:55 AM on Saturday 22 Nov 2014 (Local Time) from KSPA Reporting Station
Clear Clear  
Wind Chill: 27°   Ceiling: Unl
Heat Index: 32°   Visibility: 10mi
Dew Point: 21°   Wind: 5mph
Humidity: 64%   Direction: 10°N
Pressure: 30.52"   Gusts: NA
Location:  34.88°N, 81.97°W
Report Text: KSPA 220855Z AUTO 01004KT 10SM CLR 00/M06 A3052 RMK AO2
Loading
Personal Weather Stations






























Interactive Weather Map New forecast layout! Learn more

10-Day Weather Forecast

Advertisements
Track Severe Weather on mobile